sensor_id;sensor_type;location;lat;lon;timestamp;P1;durP1;ratioP1;P2;durP2;ratioP2
22129;SDS011;11231;50.746;4.272;2024-01-16T00:01:46;17.43;;;5.80;;
22129;SDS011;11231;50.746;4.272;2024-01-16T00:04:11;22.57;;;6.47;;
22129;SDS011;11231;50.746;4.272;2024-01-16T00:06:41;19.17;;;6.27;;
22129;SDS011;11231;50.746;4.272;2024-01-16T00:09:07;16.57;;;6.07;;
22129;SDS011;11231;50.746;4.272;2024-01-16T00:11:41;20.43;;;5.60;;
22129;SDS011;11231;50.746;4.272;2024-01-16T00:14:07;18.03;;;5.70;;
22129;SDS011;11231;50.746;4.272;2024-01-16T00:16:33;20.20;;;5.60;;
22129;SDS011;11231;50.746;4.272;2024-01-16T00:18:58;13.57;;;5.40;;
22129;SDS011;11231;50.746;4.272;2024-01-16T00:21:24;17.03;;;4.90;;
22129;SDS011;11231;50.746;4.272;2024-01-16T00:23:50;11.90;;;4.90;;
22129;SDS011;11231;50.746;4.272;2024-01-16T00:26:22;19.07;;;5.67;;
22129;SDS011;11231;50.746;4.272;2024-01-16T00:28:48;21.60;;;5.50;;
22129;SDS011;11231;50.746;4.272;2024-01-16T00:31:14;19.17;;;5.63;;
22129;SDS011;11231;50.746;4.272;2024-01-16T00:33:40;15.13;;;5.70;;
22129;SDS011;11231;50.746;4.272;2024-01-16T00:36:06;18.13;;;5.50;;
22129;SDS011;11231;50.746;4.272;2024-01-16T00:38:32;15.63;;;5.80;;
22129;SDS011;11231;50.746;4.272;2024-01-16T00:40:59;15.63;;;4.97;;
22129;SDS011;11231;50.746;4.272;2024-01-16T00:43:25;20.43;;;5.20;;
22129;SDS011;11231;50.746;4.272;2024-01-16T00:45:51;14.87;;;5.10;;
22129;SDS011;11231;50.746;4.272;2024-01-16T00:48:17;19.07;;;5.40;;
22129;SDS011;11231;50.746;4.272;2024-01-16T00:50:44;14.57;;;5.07;;
22129;SDS011;11231;50.746;4.272;2024-01-16T00:53:11;17.03;;;5.53;;
22129;SDS011;11231;50.746;4.272;2024-01-16T00:55:37;15.97;;;5.57;;
22129;SDS011;11231;50.746;4.272;2024-01-16T00:58:03;18.33;;;5.80;;
22129;SDS011;11231;50.746;4.272;2024-01-16T01:00:29;15.90;;;5.30;;
22129;SDS011;11231;50.746;4.272;2024-01-16T01:02:56;16.97;;;5.00;;
22129;SDS011;11231;50.746;4.272;2024-01-16T01:05:23;18.23;;;5.40;;
22129;SDS011;11231;50.746;4.272;2024-01-16T01:07:53;16.37;;;5.27;;
22129;SDS011;11231;50.746;4.272;2024-01-16T01:10:23;16.30;;;5.13;;
22129;SDS011;11231;50.746;4.272;2024-01-16T01:12:49;23.20;;;5.87;;
22129;SDS011;11231;50.746;4.272;2024-01-16T01:15:17;14.73;;;4.93;;
22129;SDS011;11231;50.746;4.272;2024-01-16T01:17:45;17.87;;;5.57;;
22129;SDS011;11231;50.746;4.272;2024-01-16T01:20:14;18.67;;;5.53;;
22129;SDS011;11231;50.746;4.272;2024-01-16T01:22:40;17.33;;;5.30;;
22129;SDS011;11231;50.746;4.272;2024-01-16T01:25:06;14.63;;;4.73;;
22129;SDS011;11231;50.746;4.272;2024-01-16T01:27:32;16.77;;;5.20;;
22129;SDS011;11231;50.746;4.272;2024-01-16T01:29:58;19.30;;;5.67;;
22129;SDS011;11231;50.746;4.272;2024-01-16T01:32:24;11.07;;;4.83;;
22129;SDS011;11231;50.746;4.272;2024-01-16T01:34:49;15.33;;;5.27;;
22129;SDS011;11231;50.746;4.272;2024-01-16T01:37:15;17.10;;;5.10;;
22129;SDS011;11231;50.746;4.272;2024-01-16T01:39:41;21.43;;;5.93;;
22129;SDS011;11231;50.746;4.272;2024-01-16T01:42:06;15.10;;;5.03;;
22129;SDS011;11231;50.746;4.272;2024-01-16T01:44:32;17.13;;;5.33;;
22129;SDS011;11231;50.746;4.272;2024-01-16T01:46:58;13.40;;;5.10;;
22129;SDS011;11231;50.746;4.272;2024-01-16T01:49:24;15.13;;;5.30;;
22129;SDS011;11231;50.746;4.272;2024-01-16T01:51:51;16.27;;;4.80;;
22129;SDS011;11231;50.746;4.272;2024-01-16T01:54:17;12.37;;;4.90;;
22129;SDS011;11231;50.746;4.272;2024-01-16T01:56:45;16.00;;;4.90;;
22129;SDS011;11231;50.746;4.272;2024-01-16T01:59:16;16.57;;;4.40;;
22129;SDS011;11231;50.746;4.272;2024-01-16T02:01:46;21.07;;;5.07;;
22129;SDS011;11231;50.746;4.272;2024-01-16T02:04:14;16.50;;;4.70;;
22129;SDS011;11231;50.746;4.272;2024-01-16T02:06:42;15.40;;;4.87;;
22129;SDS011;11231;50.746;4.272;2024-01-16T02:09:12;16.20;;;5.57;;
22129;SDS011;11231;50.746;4.272;2024-01-16T02:11:41;12.60;;;4.30;;
22129;SDS011;11231;50.746;4.272;2024-01-16T02:14:07;19.30;;;5.43;;
22129;SDS011;11231;50.746;4.272;2024-01-16T02:16:38;19.03;;;4.83;;
22129;SDS011;11231;50.746;4.272;2024-01-16T02:19:05;17.03;;;4.87;;
22129;SDS011;11231;50.746;4.272;2024-01-16T02:21:47;14.93;;;4.43;;
22129;SDS011;11231;50.746;4.272;2024-01-16T02:24:14;14.23;;;5.10;;
22129;SDS011;11231;50.746;4.272;2024-01-16T02:26:41;13.57;;;4.60;;
22129;SDS011;11231;50.746;4.272;2024-01-16T02:29:07;15.80;;;5.17;;
22129;SDS011;11231;50.746;4.272;2024-01-16T02:31:33;17.83;;;5.30;;
22129;SDS011;11231;50.746;4.272;2024-01-16T02:33:59;16.10;;;4.83;;
22129;SDS011;11231;50.746;4.272;2024-01-16T02:36:26;18.83;;;5.27;;
22129;SDS011;11231;50.746;4.272;2024-01-16T02:38:53;18.00;;;5.13;;
22129;SDS011;11231;50.746;4.272;2024-01-16T02:41:18;17.23;;;5.00;;
22129;SDS011;11231;50.746;4.272;2024-01-16T02:43:44;14.03;;;4.60;;
22129;SDS011;11231;50.746;4.272;2024-01-16T02:46:10;15.23;;;4.80;;
22129;SDS011;11231;50.746;4.272;2024-01-16T02:48:36;17.53;;;4.90;;
22129;SDS011;11231;50.746;4.272;2024-01-16T02:51:02;14.13;;;4.50;;
22129;SDS011;11231;50.746;4.272;2024-01-16T02:53:29;13.80;;;4.40;;
22129;SDS011;11231;50.746;4.272;2024-01-16T02:55:55;13.93;;;4.80;;
22129;SDS011;11231;50.746;4.272;2024-01-16T02:58:23;15.80;;;4.77;;
22129;SDS011;11231;50.746;4.272;2024-01-16T03:00:50;15.80;;;4.80;;
22129;SDS011;11231;50.746;4.272;2024-01-16T03:03:16;16.27;;;4.83;;
22129;SDS011;11231;50.746;4.272;2024-01-16T03:05:42;14.07;;;4.67;;
22129;SDS011;11231;50.746;4.272;2024-01-16T03:08:08;14.87;;;4.87;;
22129;SDS011;11231;50.746;4.272;2024-01-16T03:10:35;13.70;;;4.87;;
22129;SDS011;11231;50.746;4.272;2024-01-16T03:13:01;15.63;;;4.90;;
22129;SDS011;11231;50.746;4.272;2024-01-16T03:15:27;18.57;;;5.80;;
22129;SDS011;11231;50.746;4.272;2024-01-16T03:17:52;14.43;;;5.00;;
22129;SDS011;11231;50.746;4.272;2024-01-16T03:20:18;20.23;;;4.83;;
22129;SDS011;11231;50.746;4.272;2024-01-16T03:22:44;17.63;;;5.07;;
22129;SDS011;11231;50.746;4.272;2024-01-16T03:25:10;17.30;;;5.47;;
22129;SDS011;11231;50.746;4.272;2024-01-16T03:27:37;19.60;;;5.40;;
22129;SDS011;11231;50.746;4.272;2024-01-16T03:30:03;16.20;;;5.80;;
22129;SDS011;11231;50.746;4.272;2024-01-16T03:32:29;19.27;;;5.07;;
22129;SDS011;11231;50.746;4.272;2024-01-16T03:34:55;13.87;;;5.30;;
22129;SDS011;11231;50.746;4.272;2024-01-16T03:37:21;15.30;;;5.43;;
22129;SDS011;11231;50.746;4.272;2024-01-16T03:39:46;13.97;;;4.80;;
22129;SDS011;11231;50.746;4.272;2024-01-16T03:42:13;13.20;;;4.87;;
22129;SDS011;11231;50.746;4.272;2024-01-16T03:44:39;13.63;;;5.00;;
22129;SDS011;11231;50.746;4.272;2024-01-16T03:47:05;16.47;;;5.40;;
22129;SDS011;11231;50.746;4.272;2024-01-16T03:49:32;18.27;;;6.37;;
22129;SDS011;11231;50.746;4.272;2024-01-16T03:51:58;16.07;;;5.17;;
22129;SDS011;11231;50.746;4.272;2024-01-16T03:54:23;12.80;;;4.83;;
22129;SDS011;11231;50.746;4.272;2024-01-16T03:56:50;21.20;;;5.37;;
22129;SDS011;11231;50.746;4.272;2024-01-16T03:59:16;15.63;;;5.30;;
22129;SDS011;11231;50.746;4.272;2024-01-16T04:01:42;16.70;;;5.40;;
22129;SDS011;11231;50.746;4.272;2024-01-16T04:04:09;17.23;;;5.27;;
22129;SDS011;11231;50.746;4.272;2024-01-16T04:06:35;18.13;;;5.50;;
22129;SDS011;11231;50.746;4.272;2024-01-16T04:09:02;16.60;;;5.07;;
22129;SDS011;11231;50.746;4.272;2024-01-16T04:11:28;15.37;;;5.07;;
22129;SDS011;11231;50.746;4.272;2024-01-16T04:13:54;21.43;;;5.77;;
22129;SDS011;11231;50.746;4.272;2024-01-16T04:16:20;17.43;;;4.77;;
22129;SDS011;11231;50.746;4.272;2024-01-16T04:18:47;16.87;;;5.13;;
22129;SDS011;11231;50.746;4.272;2024-01-16T04:21:13;19.37;;;6.87;;
22129;SDS011;11231;50.746;4.272;2024-01-16T04:23:39;14.43;;;5.10;;
22129;SDS011;11231;50.746;4.272;2024-01-16T04:26:07;19.17;;;5.47;;
22129;SDS011;11231;50.746;4.272;2024-01-16T04:28:33;18.07;;;5.37;;
22129;SDS011;11231;50.746;4.272;2024-01-16T04:31:00;18.87;;;5.77;;
22129;SDS011;11231;50.746;4.272;2024-01-16T04:33:26;25.50;;;5.40;;
22129;SDS011;11231;50.746;4.272;2024-01-16T04:35:52;13.30;;;5.23;;
22129;SDS011;11231;50.746;4.272;2024-01-16T04:38:18;18.57;;;5.33;;
22129;SDS011;11231;50.746;4.272;2024-01-16T04:40:44;16.13;;;5.77;;
22129;SDS011;11231;50.746;4.272;2024-01-16T04:43:10;18.47;;;5.53;;
22129;SDS011;11231;50.746;4.272;2024-01-16T04:45:35;15.93;;;5.90;;
22129;SDS011;11231;50.746;4.272;2024-01-16T04:48:01;15.93;;;5.13;;
22129;SDS011;11231;50.746;4.272;2024-01-16T04:50:28;18.93;;;5.57;;
22129;SDS011;11231;50.746;4.272;2024-01-16T04:52:59;20.40;;;5.70;;
22129;SDS011;11231;50.746;4.272;2024-01-16T04:55:26;15.17;;;5.57;;
22129;SDS011;11231;50.746;4.272;2024-01-16T04:57:52;19.50;;;5.80;;
22129;SDS011;11231;50.746;4.272;2024-01-16T05:00:20;18.60;;;5.30;;
22129;SDS011;11231;50.746;4.272;2024-01-16T05:02:46;12.43;;;6.00;;
22129;SDS011;11231;50.746;4.272;2024-01-16T05:05:13;13.90;;;5.17;;
22129;SDS011;11231;50.746;4.272;2024-01-16T05:07:39;15.87;;;5.60;;
22129;SDS011;11231;50.746;4.272;2024-01-16T05:10:05;15.93;;;5.67;;
22129;SDS011;11231;50.746;4.272;2024-01-16T05:12:32;18.73;;;5.50;;
22129;SDS011;11231;50.746;4.272;2024-01-16T05:14:58;17.97;;;5.37;;
22129;SDS011;11231;50.746;4.272;2024-01-16T05:17:24;16.93;;;5.17;;
22129;SDS011;11231;50.746;4.272;2024-01-16T05:19:49;16.87;;;5.47;;
22129;SDS011;11231;50.746;4.272;2024-01-16T05:22:15;17.30;;;5.10;;
22129;SDS011;11231;50.746;4.272;2024-01-16T05:24:41;21.10;;;5.53;;
22129;SDS011;11231;50.746;4.272;2024-01-16T05:27:07;70.67;;;7.63;;
22129;SDS011;11231;50.746;4.272;2024-01-16T05:29:34;21.27;;;5.87;;
22129;SDS011;11231;50.746;4.272;2024-01-16T05:32:03;17.67;;;5.43;;
22129;SDS011;11231;50.746;4.272;2024-01-16T05:34:29;20.33;;;5.40;;
22129;SDS011;11231;50.746;4.272;2024-01-16T05:36:55;25.53;;;5.93;;
22129;SDS011;11231;50.746;4.272;2024-01-16T05:39:21;14.80;;;5.03;;
22129;SDS011;11231;50.746;4.272;2024-01-16T05:41:49;18.10;;;5.40;;
22129;SDS011;11231;50.746;4.272;2024-01-16T05:44:15;13.90;;;5.00;;
22129;SDS011;11231;50.746;4.272;2024-01-16T05:46:42;17.40;;;5.20;;
22129;SDS011;11231;50.746;4.272;2024-01-16T05:49:08;20.37;;;5.60;;
22129;SDS011;11231;50.746;4.272;2024-01-16T05:51:33;14.33;;;5.40;;
22129;SDS011;11231;50.746;4.272;2024-01-16T05:53:59;22.03;;;5.83;;
22129;SDS011;11231;50.746;4.272;2024-01-16T05:56:25;16.93;;;5.40;;
22129;SDS011;11231;50.746;4.272;2024-01-16T05:58:51;14.37;;;5.30;;
22129;SDS011;11231;50.746;4.272;2024-01-16T06:01:17;17.60;;;5.77;;
22129;SDS011;11231;50.746;4.272;2024-01-16T06:03:43;16.47;;;5.33;;
22129;SDS011;11231;50.746;4.272;2024-01-16T06:06:11;17.53;;;6.17;;
22129;SDS011;11231;50.746;4.272;2024-01-16T06:08:37;18.67;;;5.70;;
22129;SDS011;11231;50.746;4.272;2024-01-16T06:11:02;12.47;;;5.37;;
22129;SDS011;11231;50.746;4.272;2024-01-16T06:13:28;15.60;;;6.07;;
22129;SDS011;11231;50.746;4.272;2024-01-16T06:15:56;14.67;;;5.60;;
22129;SDS011;11231;50.746;4.272;2024-01-16T06:18:22;14.67;;;5.57;;
22129;SDS011;11231;50.746;4.272;2024-01-16T06:20:48;19.27;;;5.53;;
22129;SDS011;11231;50.746;4.272;2024-01-16T06:23:13;17.07;;;5.87;;
22129;SDS011;11231;50.746;4.272;2024-01-16T06:25:39;13.47;;;5.37;;
22129;SDS011;11231;50.746;4.272;2024-01-16T06:28:05;16.90;;;5.30;;
22129;SDS011;11231;50.746;4.272;2024-01-16T06:30:32;19.80;;;4.90;;
22129;SDS011;11231;50.746;4.272;2024-01-16T06:32:58;15.07;;;5.13;;
22129;SDS011;11231;50.746;4.272;2024-01-16T06:35:24;17.03;;;5.80;;
22129;SDS011;11231;50.746;4.272;2024-01-16T06:37:50;16.63;;;5.53;;
22129;SDS011;11231;50.746;4.272;2024-01-16T06:40:16;13.97;;;5.10;;
22129;SDS011;11231;50.746;4.272;2024-01-16T06:42:42;19.30;;;5.17;;
22129;SDS011;11231;50.746;4.272;2024-01-16T06:45:08;15.43;;;5.00;;
22129;SDS011;11231;50.746;4.272;2024-01-16T06:47:34;14.60;;;5.27;;
22129;SDS011;11231;50.746;4.272;2024-01-16T06:49:59;16.13;;;5.03;;
22129;SDS011;11231;50.746;4.272;2024-01-16T06:52:25;17.50;;;6.17;;
22129;SDS011;11231;50.746;4.272;2024-01-16T06:54:51;14.47;;;5.50;;
22129;SDS011;11231;50.746;4.272;2024-01-16T06:57:16;16.50;;;5.50;;
22129;SDS011;11231;50.746;4.272;2024-01-16T06:59:42;17.80;;;5.17;;
22129;SDS011;11231;50.746;4.272;2024-01-16T07:02:08;15.07;;;5.10;;
22129;SDS011;11231;50.746;4.272;2024-01-16T07:04:33;15.87;;;4.80;;
22129;SDS011;11231;50.746;4.272;2024-01-16T07:06:59;17.93;;;5.43;;
22129;SDS011;11231;50.746;4.272;2024-01-16T07:09:25;14.00;;;5.10;;
22129;SDS011;11231;50.746;4.272;2024-01-16T07:11:52;16.87;;;5.20;;
22129;SDS011;11231;50.746;4.272;2024-01-16T07:14:18;14.23;;;5.10;;
22129;SDS011;11231;50.746;4.272;2024-01-16T07:16:45;16.07;;;5.30;;
22129;SDS011;11231;50.746;4.272;2024-01-16T07:19:11;17.57;;;5.13;;
22129;SDS011;11231;50.746;4.272;2024-01-16T07:21:37;17.63;;;5.40;;
22129;SDS011;11231;50.746;4.272;2024-01-16T07:24:03;11.67;;;4.67;;
22129;SDS011;11231;50.746;4.272;2024-01-16T07:26:29;11.93;;;5.03;;
22129;SDS011;11231;50.746;4.272;2024-01-16T07:28:55;14.53;;;5.40;;
22129;SDS011;11231;50.746;4.272;2024-01-16T07:31:21;16.27;;;5.00;;
22129;SDS011;11231;50.746;4.272;2024-01-16T07:33:46;13.97;;;5.20;;
22129;SDS011;11231;50.746;4.272;2024-01-16T07:36:13;11.00;;;5.57;;
22129;SDS011;11231;50.746;4.272;2024-01-16T07:38:39;12.13;;;4.40;;
22129;SDS011;11231;50.746;4.272;2024-01-16T07:41:05;18.90;;;5.03;;
22129;SDS011;11231;50.746;4.272;2024-01-16T07:43:31;18.03;;;5.63;;
22129;SDS011;11231;50.746;4.272;2024-01-16T07:45:57;14.00;;;4.93;;
22129;SDS011;11231;50.746;4.272;2024-01-16T07:48:23;17.13;;;5.07;;
22129;SDS011;11231;50.746;4.272;2024-01-16T07:50:49;16.87;;;5.23;;
22129;SDS011;11231;50.746;4.272;2024-01-16T07:53:15;17.67;;;5.20;;
22129;SDS011;11231;50.746;4.272;2024-01-16T07:55:41;18.27;;;4.90;;
22129;SDS011;11231;50.746;4.272;2024-01-16T07:58:10;12.00;;;5.10;;
22129;SDS011;11231;50.746;4.272;2024-01-16T08:00:36;12.33;;;5.17;;
22129;SDS011;11231;50.746;4.272;2024-01-16T08:03:02;13.87;;;4.87;;
22129;SDS011;11231;50.746;4.272;2024-01-16T08:05:29;11.27;;;4.40;;
22129;SDS011;11231;50.746;4.272;2024-01-16T08:07:56;16.30;;;4.80;;
22129;SDS011;11231;50.746;4.272;2024-01-16T08:10:24;12.97;;;4.47;;
22129;SDS011;11231;50.746;4.272;2024-01-16T08:12:50;14.23;;;4.63;;
22129;SDS011;11231;50.746;4.272;2024-01-16T08:15:16;13.37;;;4.43;;
22129;SDS011;11231;50.746;4.272;2024-01-16T08:17:42;16.00;;;5.20;;
22129;SDS011;11231;50.746;4.272;2024-01-16T08:20:08;13.53;;;4.30;;
22129;SDS011;11231;50.746;4.272;2024-01-16T08:22:37;17.07;;;6.33;;
22129;SDS011;11231;50.746;4.272;2024-01-16T08:25:03;15.40;;;5.43;;
22129;SDS011;11231;50.746;4.272;2024-01-16T08:27:32;14.27;;;4.90;;
22129;SDS011;11231;50.746;4.272;2024-01-16T08:29:58;17.07;;;4.47;;
22129;SDS011;11231;50.746;4.272;2024-01-16T08:32:24;14.73;;;4.73;;
22129;SDS011;11231;50.746;4.272;2024-01-16T08:34:50;14.23;;;4.63;;
22129;SDS011;11231;50.746;4.272;2024-01-16T08:37:16;15.40;;;4.60;;
22129;SDS011;11231;50.746;4.272;2024-01-16T08:39:42;13.93;;;4.67;;
22129;SDS011;11231;50.746;4.272;2024-01-16T08:42:08;12.67;;;4.30;;
22129;SDS011;11231;50.746;4.272;2024-01-16T08:44:40;10.70;;;4.63;;
22129;SDS011;11231;50.746;4.272;2024-01-16T08:47:05;14.70;;;5.33;;
22129;SDS011;11231;50.746;4.272;2024-01-16T08:49:31;14.77;;;4.67;;
22129;SDS011;11231;50.746;4.272;2024-01-16T08:51:58;13.67;;;5.07;;
22129;SDS011;11231;50.746;4.272;2024-01-16T08:54:24;17.73;;;5.47;;
22129;SDS011;11231;50.746;4.272;2024-01-16T08:56:51;12.97;;;4.70;;
22129;SDS011;11231;50.746;4.272;2024-01-16T08:59:17;17.83;;;4.37;;
22129;SDS011;11231;50.746;4.272;2024-01-16T09:01:43;13.63;;;4.57;;
22129;SDS011;11231;50.746;4.272;2024-01-16T09:04:09;11.47;;;4.47;;
22129;SDS011;11231;50.746;4.272;2024-01-16T09:06:34;9.40;;;3.63;;
22129;SDS011;11231;50.746;4.272;2024-01-16T09:09:00;11.53;;;4.13;;
22129;SDS011;11231;50.746;4.272;2024-01-16T09:11:29;15.33;;;4.40;;
22129;SDS011;11231;50.746;4.272;2024-01-16T09:13:55;17.10;;;4.43;;
22129;SDS011;11231;50.746;4.272;2024-01-16T09:16:20;18.27;;;4.53;;
22129;SDS011;11231;50.746;4.272;2024-01-16T09:18:46;17.20;;;4.50;;
22129;SDS011;11231;50.746;4.272;2024-01-16T09:21:12;12.63;;;4.17;;
22129;SDS011;11231;50.746;4.272;2024-01-16T09:23:39;14.23;;;4.30;;
22129;SDS011;11231;50.746;4.272;2024-01-16T09:26:05;11.60;;;4.60;;
22129;SDS011;11231;50.746;4.272;2024-01-16T09:28:30;13.63;;;4.43;;
22129;SDS011;11231;50.746;4.272;2024-01-16T09:30:59;12.37;;;4.70;;
22129;SDS011;11231;50.746;4.272;2024-01-16T09:33:26;13.23;;;4.30;;
22129;SDS011;11231;50.746;4.272;2024-01-16T09:35:52;12.60;;;4.37;;
22129;SDS011;11231;50.746;4.272;2024-01-16T09:38:17;35.40;;;16.20;;
22129;SDS011;11231;50.746;4.272;2024-01-16T09:40:43;22.03;;;8.67;;
22129;SDS011;11231;50.746;4.272;2024-01-16T09:43:09;26.60;;;10.03;;
22129;SDS011;11231;50.746;4.272;2024-01-16T09:45:38;22.70;;;9.77;;
22129;SDS011;11231;50.746;4.272;2024-01-16T09:48:04;15.03;;;5.23;;
22129;SDS011;11231;50.746;4.272;2024-01-16T09:50:31;21.73;;;8.60;;
22129;SDS011;11231;50.746;4.272;2024-01-16T09:52:57;22.07;;;8.63;;
22129;SDS011;11231;50.746;4.272;2024-01-16T09:55:23;22.53;;;8.90;;
22129;SDS011;11231;50.746;4.272;2024-01-16T09:57:51;20.50;;;8.60;;
22129;SDS011;11231;50.746;4.272;2024-01-16T10:00:18;16.67;;;6.20;;
22129;SDS011;11231;50.746;4.272;2024-01-16T10:02:44;18.33;;;7.30;;
22129;SDS011;11231;50.746;4.272;2024-01-16T10:05:11;27.60;;;10.40;;
22129;SDS011;11231;50.746;4.272;2024-01-16T10:07:38;26.03;;;9.93;;
22129;SDS011;11231;50.746;4.272;2024-01-16T10:10:05;19.47;;;7.80;;
22129;SDS011;11231;50.746;4.272;2024-01-16T10:12:32;27.97;;;11.17;;
22129;SDS011;11231;50.746;4.272;2024-01-16T10:14:59;24.77;;;8.73;;
22129;SDS011;11231;50.746;4.272;2024-01-16T10:17:43;20.77;;;9.03;;
22129;SDS011;11231;50.746;4.272;2024-01-16T10:20:09;18.00;;;7.67;;
22129;SDS011;11231;50.746;4.272;2024-01-16T10:22:40;24.77;;;10.37;;
22129;SDS011;11231;50.746;4.272;2024-01-16T10:25:06;23.87;;;10.10;;
22129;SDS011;11231;50.746;4.272;2024-01-16T10:27:34;27.63;;;11.40;;
22129;SDS011;11231;50.746;4.272;2024-01-16T10:30:00;35.17;;;11.23;;
22129;SDS011;11231;50.746;4.272;2024-01-16T10:32:28;46.57;;;15.20;;
22129;SDS011;11231;50.746;4.272;2024-01-16T10:35:01;35.40;;;11.77;;
22129;SDS011;11231;50.746;4.272;2024-01-16T10:37:48;22.23;;;8.80;;
22129;SDS011;11231;50.746;4.272;2024-01-16T10:45:25;10.47;;;3.87;;
22129;SDS011;11231;50.746;4.272;2024-01-16T10:48:07;11.03;;;3.73;;
22129;SDS011;11231;50.746;4.272;2024-01-16T10:50:34;12.80;;;3.97;;
22129;SDS011;11231;50.746;4.272;2024-01-16T10:53:03;10.83;;;3.90;;
22129;SDS011;11231;50.746;4.272;2024-01-16T10:55:30;11.37;;;4.40;;
22129;SDS011;11231;50.746;4.272;2024-01-16T10:58:00;13.10;;;5.50;;
22129;SDS011;11231;50.746;4.272;2024-01-16T11:00:27;15.00;;;5.43;;
22129;SDS011;11231;50.746;4.272;2024-01-16T11:03:04;10.17;;;4.10;;
22129;SDS011;11231;50.746;4.272;2024-01-16T11:05:32;13.73;;;3.93;;
22129;SDS011;11231;50.746;4.272;2024-01-16T11:08:00;12.47;;;4.40;;
22129;SDS011;11231;50.746;4.272;2024-01-16T11:10:29;11.57;;;4.00;;
22129;SDS011;11231;50.746;4.272;2024-01-16T11:12:59;9.27;;;3.80;;
22129;SDS011;11231;50.746;4.272;2024-01-16T11:15:25;8.83;;;3.70;;
22129;SDS011;11231;50.746;4.272;2024-01-16T11:17:54;10.67;;;4.00;;
22129;SDS011;11231;50.746;4.272;2024-01-16T11:20:21;12.20;;;4.43;;
22129;SDS011;11231;50.746;4.272;2024-01-16T11:22:48;12.63;;;3.80;;
22129;SDS011;11231;50.746;4.272;2024-01-16T11:25:15;10.23;;;4.17;;
22129;SDS011;11231;50.746;4.272;2024-01-16T11:27:43;9.93;;;4.00;;
22129;SDS011;11231;50.746;4.272;2024-01-16T11:30:13;12.63;;;4.23;;
22129;SDS011;11231;50.746;4.272;2024-01-16T11:32:55;12.43;;;4.37;;
22129;SDS011;11231;50.746;4.272;2024-01-16T11:35:42;9.10;;;3.60;;
22129;SDS011;11231;50.746;4.272;2024-01-16T11:38:08;13.77;;;3.97;;
22129;SDS011;11231;50.746;4.272;2024-01-16T11:40:41;11.43;;;3.60;;
22129;SDS011;11231;50.746;4.272;2024-01-16T11:45:58;11.90;;;4.73;;
22129;SDS011;11231;50.746;4.272;2024-01-16T11:48:24;12.23;;;4.40;;
22129;SDS011;11231;50.746;4.272;2024-01-16T11:50:50;12.17;;;3.97;;
22129;SDS011;11231;50.746;4.272;2024-01-16T11:53:33;12.07;;;4.53;;
22129;SDS011;11231;50.746;4.272;2024-01-16T12:01:41;13.50;;;5.13;;
22129;SDS011;11231;50.746;4.272;2024-01-16T12:04:10;11.30;;;4.13;;
22129;SDS011;11231;50.746;4.272;2024-01-16T12:06:36;11.53;;;4.23;;
22129;SDS011;11231;50.746;4.272;2024-01-16T12:09:11;13.13;;;4.30;;
22129;SDS011;11231;50.746;4.272;2024-01-16T12:11:38;12.07;;;4.00;;
22129;SDS011;11231;50.746;4.272;2024-01-16T12:14:14;14.03;;;5.73;;
22129;SDS011;11231;50.746;4.272;2024-01-16T12:16:39;13.20;;;3.93;;
22129;SDS011;11231;50.746;4.272;2024-01-16T12:19:06;12.93;;;4.10;;
22129;SDS011;11231;50.746;4.272;2024-01-16T12:21:41;12.47;;;3.93;;
22129;SDS011;11231;50.746;4.272;2024-01-16T12:24:09;12.67;;;5.60;;
22129;SDS011;11231;50.746;4.272;2024-01-16T12:26:36;16.63;;;5.33;;
22129;SDS011;11231;50.746;4.272;2024-01-16T12:29:02;14.40;;;4.87;;
22129;SDS011;11231;50.746;4.272;2024-01-16T12:31:29;15.53;;;4.97;;
22129;SDS011;11231;50.746;4.272;2024-01-16T12:34:13;12.87;;;5.43;;
22129;SDS011;11231;50.746;4.272;2024-01-16T12:36:38;16.57;;;5.87;;
22129;SDS011;11231;50.746;4.272;2024-01-16T12:39:04;14.33;;;4.47;;
22129;SDS011;11231;50.746;4.272;2024-01-16T12:41:32;13.47;;;4.37;;
22129;SDS011;11231;50.746;4.272;2024-01-16T12:44:05;15.00;;;4.70;;
22129;SDS011;11231;50.746;4.272;2024-01-16T12:46:30;13.83;;;5.07;;
22129;SDS011;11231;50.746;4.272;2024-01-16T12:49:01;9.97;;;3.27;;
22129;SDS011;11231;50.746;4.272;2024-01-16T12:51:27;11.47;;;3.83;;
22129;SDS011;11231;50.746;4.272;2024-01-16T12:53:53;15.03;;;4.17;;
22129;SDS011;11231;50.746;4.272;2024-01-16T12:56:19;12.93;;;4.70;;
22129;SDS011;11231;50.746;4.272;2024-01-16T12:58:48;11.87;;;3.97;;
22129;SDS011;11231;50.746;4.272;2024-01-16T13:01:24;11.67;;;3.60;;
22129;SDS011;11231;50.746;4.272;2024-01-16T13:03:51;9.67;;;3.10;;
22129;SDS011;11231;50.746;4.272;2024-01-16T13:06:17;9.73;;;3.67;;
22129;SDS011;11231;50.746;4.272;2024-01-16T13:08:47;10.93;;;3.57;;
22129;SDS011;11231;50.746;4.272;2024-01-16T13:11:13;11.27;;;3.07;;
22129;SDS011;11231;50.746;4.272;2024-01-16T13:13:45;10.00;;;3.73;;
22129;SDS011;11231;50.746;4.272;2024-01-16T13:16:13;9.87;;;3.40;;
22129;SDS011;11231;50.746;4.272;2024-01-16T13:18:39;7.33;;;2.93;;
22129;SDS011;11231;50.746;4.272;2024-01-16T13:21:05;9.80;;;3.30;;
22129;SDS011;11231;50.746;4.272;2024-01-16T13:23:30;10.53;;;3.20;;
22129;SDS011;11231;50.746;4.272;2024-01-16T13:25:56;11.57;;;3.77;;
22129;SDS011;11231;50.746;4.272;2024-01-16T13:28:25;10.40;;;3.40;;
22129;SDS011;11231;50.746;4.272;2024-01-16T13:30:52;12.80;;;4.03;;
22129;SDS011;11231;50.746;4.272;2024-01-16T13:33:18;10.20;;;4.20;;
22129;SDS011;11231;50.746;4.272;2024-01-16T13:35:44;15.40;;;5.87;;
22129;SDS011;11231;50.746;4.272;2024-01-16T13:38:14;13.37;;;5.73;;
22129;SDS011;11231;50.746;4.272;2024-01-16T13:40:44;10.83;;;3.73;;
22129;SDS011;11231;50.746;4.272;2024-01-16T13:43:10;14.47;;;4.27;;
22129;SDS011;11231;50.746;4.272;2024-01-16T13:45:36;13.47;;;4.80;;
22129;SDS011;11231;50.746;4.272;2024-01-16T13:48:06;13.37;;;5.10;;
22129;SDS011;11231;50.746;4.272;2024-01-16T13:50:33;11.73;;;3.60;;
22129;SDS011;11231;50.746;4.272;2024-01-16T13:52:59;11.50;;;4.17;;
22129;SDS011;11231;50.746;4.272;2024-01-16T13:55:25;11.53;;;3.20;;
22129;SDS011;11231;50.746;4.272;2024-01-16T13:57:51;11.27;;;4.47;;
22129;SDS011;11231;50.746;4.272;2024-01-16T14:00:17;14.23;;;5.37;;
22129;SDS011;11231;50.746;4.272;2024-01-16T14:02:44;17.57;;;5.73;;
22129;SDS011;11231;50.746;4.272;2024-01-16T14:05:11;12.70;;;3.73;;
22129;SDS011;11231;50.746;4.272;2024-01-16T14:07:46;11.10;;;3.90;;
22129;SDS011;11231;50.746;4.272;2024-01-16T14:10:16;12.77;;;4.13;;
22129;SDS011;11231;50.746;4.272;2024-01-16T14:12:43;9.13;;;4.07;;
22129;SDS011;11231;50.746;4.272;2024-01-16T14:15:14;11.93;;;4.63;;
22129;SDS011;11231;50.746;4.272;2024-01-16T14:17:45;19.30;;;8.03;;
22129;SDS011;11231;50.746;4.272;2024-01-16T14:20:13;21.30;;;9.57;;
22129;SDS011;11231;50.746;4.272;2024-01-16T14:22:39;17.80;;;7.73;;
22129;SDS011;11231;50.746;4.272;2024-01-16T14:25:08;15.77;;;5.47;;
22129;SDS011;11231;50.746;4.272;2024-01-16T14:27:38;13.77;;;4.67;;
22129;SDS011;11231;50.746;4.272;2024-01-16T14:30:07;13.67;;;5.43;;
22129;SDS011;11231;50.746;4.272;2024-01-16T14:32:37;12.17;;;4.10;;
22129;SDS011;11231;50.746;4.272;2024-01-16T14:35:06;10.20;;;3.87;;
22129;SDS011;11231;50.746;4.272;2024-01-16T14:37:34;10.03;;;3.97;;
22129;SDS011;11231;50.746;4.272;2024-01-16T14:40:01;10.10;;;4.23;;
22129;SDS011;11231;50.746;4.272;2024-01-16T14:42:28;12.17;;;4.60;;
22129;SDS011;11231;50.746;4.272;2024-01-16T14:44:54;13.83;;;4.27;;
22129;SDS011;11231;50.746;4.272;2024-01-16T14:47:20;13.63;;;4.50;;
22129;SDS011;11231;50.746;4.272;2024-01-16T14:49:46;10.50;;;4.20;;